Time;durP1;ratioP1;P1;durP2;ratioP2;P2;SDS_P1;SDS_P2;PMS_P1;PMS_P2;Temp;Humidity;BMP_temperature;BMP_pressure;BME280_temperature;BME280_humidity;BME280_pressure;Samples;Min_cycle;Max_cycle;Signal;HPM_P1;HPM_P2
2021/07/06 00:01:01;;;;;;;25.35;12.25;;;;;;;19.50;63.24;98593.98;2079717;85;21054;-63
2021/07/06 00:04:01;;;;;;;23.75;12.18;;;;;;;19.45;63.35;98595.44;2069358;86;20988;-63
2021/07/06 00:07:02;;;;;;;25.52;12.50;;;;;;;19.36;63.65;98596.70;2069380;86;21545;-63
2021/07/06 00:10:02;;;;;;;29.12;13.75;;;;;;;19.36;63.65;98596.70;2069626;86;21478;-63
2021/07/06 00:13:02;;;;;;;24.27;12.33;;;;;;;19.26;63.35;98603.12;2069380;86;21454;-63
2021/07/06 00:16:03;;;;;;;26.65;12.68;;;;;;;19.15;63.73;98602.86;2069297;86;20987;-63
2021/07/06 00:19:04;;;;;;;25.27;12.75;;;;;;;19.07;64.01;98614.27;2069221;86;21007;-63
2021/07/06 00:22:04;;;;;;;27.30;14.10;;;;;;;19.00;64.27;98619.86;2069371;86;20983;-63
2021/07/06 00:25:04;;;;;;;26.77;12.98;;;;;;;18.90;64.24;98613.28;2069323;86;20952;-63
2021/07/06 00:28:05;;;;;;;25.75;12.37;;;;;;;18.79;64.67;98613.00;2068926;86;21102;-63
2021/07/06 00:31:06;;;;;;;26.75;12.40;;;;;;;18.72;64.82;98615.07;2069235;86;20991;-63
2021/07/06 00:34:07;;;;;;;27.02;13.62;;;;;;;18.63;65.17;98617.66;2069211;86;21026;-63
2021/07/06 00:37:07;;;;;;;26.25;13.62;;;;;;;18.62;65.08;98615.98;2071265;85;21498;-63
2021/07/06 00:40:08;;;;;;;27.30;14.07;;;;;;;18.53;65.17;98615.54;2072085;86;21071;-64
2021/07/06 00:43:08;;;;;;;26.75;13.48;;;;;;;18.40;65.20;98616.40;2072083;86;20995;-63
2021/07/06 00:46:08;;;;;;;26.77;14.38;;;;;;;18.28;65.44;98622.41;2072187;86;20971;-63
2021/07/06 00:49:09;;;;;;;26.90;13.18;;;;;;;18.20;65.84;98620.98;2072104;86;21023;-64
2021/07/06 00:52:10;;;;;;;25.55;12.53;;;;;;;18.10;66.23;98621.87;2071903;86;21051;-63
2021/07/06 00:55:10;;;;;;;26.77;13.03;;;;;;;18.04;66.45;98635.70;2071965;86;21055;-63
2021/07/06 00:58:10;;;;;;;26.57;13.25;;;;;;;17.95;66.59;98638.73;2072182;86;21608;-65
2021/07/06 01:01:11;;;;;;;28.40;13.50;;;;;;;17.88;66.75;98638.12;2072228;86;21558;-63
2021/07/06 01:04:11;;;;;;;26.70;15.00;;;;;;;17.78;67.10;98641.63;2072153;86;20991;-63
2021/07/06 01:07:12;;;;;;;27.17;14.85;;;;;;;17.72;67.29;98632.09;2072097;86;21040;-65
2021/07/06 01:10:12;;;;;;;30.02;14.35;;;;;;;17.65;67.57;98636.63;2072162;86;21031;-64
2021/07/06 01:13:12;;;;;;;27.40;13.90;;;;;;;17.58;67.56;98642.16;2072298;86;20995;-64
2021/07/06 01:16:13;;;;;;;27.42;12.68;;;;;;;17.47;67.99;98637.87;2072190;86;21114;-64
2021/07/06 01:19:14;;;;;;;27.45;14.25;;;;;;;17.39;68.22;98639.55;2072075;86;21518;-65
2021/07/06 01:22:15;;;;;;;28.32;14.68;;;;;;;17.34;68.27;98645.76;2072103;86;21554;-63
2021/07/06 01:25:15;;;;;;;26.68;14.15;;;;;;;17.26;68.29;98645.98;2072138;86;21016;-64
2021/07/06 01:28:15;;;;;;;28.92;14.40;;;;;;;17.14;68.45;98647.94;2072100;86;20963;-66
2021/07/06 01:31:16;;;;;;;29.45;14.73;;;;;;;17.07;68.79;98652.63;2072299;86;21032;-63
2021/07/06 01:34:16;;;;;;;31.05;13.62;;;;;;;16.99;69.24;98651.15;2072119;86;20956;-64
2021/07/06 01:37:17;;;;;;;27.00;13.83;;;;;;;16.95;69.30;98643.95;2071782;85;21016;-64
2021/07/06 01:40:17;;;;;;;27.45;14.83;;;;;;;16.91;69.59;98647.84;2072125;86;21011;-63
2021/07/06 01:43:18;;;;;;;27.87;14.38;;;;;;;16.88;69.67;98649.45;2072176;86;21075;-62
2021/07/06 01:46:19;;;;;;;29.23;14.68;;;;;;;16.86;69.95;98648.73;2072206;86;21023;-63
2021/07/06 01:49:19;;;;;;;26.93;14.58;;;;;;;16.81;69.78;98649.16;2072121;86;21586;-63
2021/07/06 01:52:19;;;;;;;31.77;14.13;;;;;;;16.76;69.98;98654.02;2072082;86;21047;-62
2021/07/06 01:55:20;;;;;;;34.30;15.43;;;;;;;16.71;70.12;98655.75;2072014;86;21031;-62
2021/07/06 01:58:20;;;;;;;29.85;14.53;;;;;;;16.65;70.45;98653.66;2072134;86;21067;-65
2021/07/06 02:01:21;;;;;;;30.35;15.65;;;;;;;16.62;71.16;98657.88;2072161;86;21114;-63
2021/07/06 02:04:21;;;;;;;28.65;14.85;;;;;;;16.60;71.00;98659.84;2072284;86;21011;-65
2021/07/06 02:07:21;;;;;;;27.82;14.58;;;;;;;16.59;70.96;98660.81;2072031;86;20971;-63
2021/07/06 02:10:22;;;;;;;30.77;15.60;;;;;;;16.53;70.81;98655.56;2072186;86;21522;-69
2021/07/06 02:13:23;;;;;;;27.05;13.38;;;;;;;16.48;70.92;98659.13;2071987;86;21521;-67
2021/07/06 02:16:24;;;;;;;28.17;14.78;;;;;;;16.43;71.03;98652.92;2072148;86;21082;-63
2021/07/06 02:19:24;;;;;;;29.80;15.08;;;;;;;16.34;71.37;98660.33;2071811;86;21023;-64
2021/07/06 02:22:25;;;;;;;29.37;15.72;;;;;;;16.31;71.77;98665.06;2072330;86;21031;-63
2021/07/06 02:25:25;;;;;;;30.57;15.83;;;;;;;16.27;71.90;98661.34;2072339;86;21027;-64
2021/07/06 02:28:26;;;;;;;34.70;16.17;;;;;;;16.26;71.85;98664.98;2072219;86;21546;-63
2021/07/06 02:31:26;;;;;;;29.57;15.13;;;;;;;16.21;72.04;98671.14;2072239;86;20984;-63
2021/07/06 02:34:27;;;;;;;28.07;14.68;;;;;;;16.15;72.29;98673.01;2072190;86;20995;-63
2021/07/06 02:37:27;;;;;;;28.02;14.35;;;;;;;16.12;72.47;98675.92;2088850;85;21100;-66
2021/07/06 02:40:28;;;;;;;27.07;14.53;;;;;;;16.07;72.38;98672.83;2098032;84;21019;-63
2021/07/06 02:43:28;;;;;;;28.55;14.87;;;;;;;16.02;72.33;98673.23;2097773;85;20984;-63
2021/07/06 02:46:29;;;;;;;30.88;15.88;;;;;;;15.99;72.48;98679.25;2097463;84;21055;-63
2021/07/06 02:49:29;;;;;;;29.05;16.17;;;;;;;15.94;72.71;98675.69;2097850;84;21471;-63
2021/07/06 02:52:30;;;;;;;29.63;15.30;;;;;;;15.93;73.03;98677.97;2097711;84;21085;-65
2021/07/06 02:55:30;;;;;;;24.98;12.13;;;;;;;15.88;73.20;98674.90;2097691;84;21000;-64
2021/07/06 02:58:31;;;;;;;23.95;11.83;;;;;;;15.82;73.33;98680.22;2097779;84;21090;-64
2021/07/06 03:01:31;;;;;;;24.25;11.28;;;;;;;15.79;73.57;98678.31;2097967;84;21005;-65
2021/07/06 03:04:32;;;;;;;27.02;15.43;;;;;;;15.80;73.42;98680.82;2097812;84;21045;-64
2021/07/06 03:07:32;;;;;;;22.37;10.13;;;;;;;15.82;73.85;98676.75;2097832;84;21554;-64
2021/07/06 03:10:33;;;;;;;23.35;10.70;;;;;;;15.88;73.79;98678.37;2097949;84;21482;-65
2021/07/06 03:13:33;;;;;;;22.85;11.60;;;;;;;15.91;73.59;98675.95;2097441;85;21016;-63
2021/07/06 03:16:34;;;;;;;24.23;12.00;;;;;;;15.95;73.64;98681.34;2097672;84;20976;-64
2021/07/06 03:19:34;;;;;;;24.12;10.90;;;;;;;16.01;73.67;98681.30;2097785;84;21075;-65
2021/07/06 03:22:35;;;;;;;24.12;12.20;;;;;;;16.11;73.74;98685.65;2097762;85;20977;-62
2021/07/06 03:25:35;;;;;;;24.40;12.60;;;;;;;16.32;73.98;98682.59;2097755;84;21040;-66
2021/07/06 03:28:38;;;;;;;25.43;12.78;;;;;;;16.40;73.25;98684.09;2097758;84;20992;-62
2021/07/06 03:31:38;;;;;;;;;;;;;;;16.48;73.09;98680.77;2097653;84;20996;-65
2021/07/06 03:34:39;;;;;;;31.55;12.93;;;;;;;16.58;73.43;98682.98;2097613;85;20111;-63
2021/07/06 03:37:40;;;;;;;25.80;12.82;;;;;;;16.68;73.11;98679.01;2149355;83;21107;-64
2021/07/06 03:40:40;;;;;;;30.27;14.80;;;;;;;16.77;72.97;98686.98;2152691;83;21072;-63
2021/07/06 03:43:41;;;;;;;26.40;12.75;;;;;;;16.93;72.78;98694.92;2153000;83;21054;-62
2021/07/06 03:46:41;;;;;;;25.23;12.55;;;;;;;16.97;72.30;98687.05;2153034;83;21119;-63
2021/07/06 03:49:42;;;;;;;25.95;14.18;;;;;;;16.97;72.06;98687.88;2153142;83;21012;-63
2021/07/06 03:52:42;;;;;;;25.15;12.98;;;;;;;17.01;72.14;98690.25;2153268;83;21036;-63
2021/07/06 03:55:43;;;;;;;27.42;13.15;;;;;;;17.05;72.34;98692.98;2153122;83;21116;-62
2021/07/06 03:58:43;;;;;;;26.60;13.48;;;;;;;17.13;72.41;98698.43;2153139;83;21540;-62
2021/07/06 04:01:44;;;;;;;23.65;11.97;;;;;;;17.27;72.56;98700.67;2153008;83;20992;-63
2021/07/06 04:04:44;;;;;;;26.25;13.53;;;;;;;17.42;72.56;98693.12;2152960;83;21057;-62
2021/07/06 04:07:45;;;;;;;27.50;15.18;;;;;;;17.62;72.47;98703.22;2153054;83;21020;-62
2021/07/06 04:10:45;;;;;;;28.67;15.58;;;;;;;17.92;72.58;98705.86;2153149;83;20965;-64
2021/07/06 04:13:46;;;;;;;30.05;16.32;;;;;;;18.24;71.92;98704.14;2152994;83;21001;-64
2021/07/06 04:16:47;;;;;;;34.97;16.87;;;;;;;18.49;71.76;98710.62;2152940;83;21520;-62
2021/07/06 04:19:47;;;;;;;32.13;16.35;;;;;;;18.85;71.77;98712.53;2153031;83;21055;-63
2021/07/06 04:22:48;;;;;;;29.65;17.25;;;;;;;19.16;71.13;98713.53;2153255;83;21050;-63
2021/07/06 04:25:48;;;;;;;29.70;16.70;;;;;;;19.47;70.79;98710.00;2152976;83;21048;-63
2021/07/06 04:28:49;;;;;;;35.83;16.90;;;;;;;19.77;69.79;98714.56;2153155;83;20992;-63
2021/07/06 04:31:49;;;;;;;30.75;17.87;;;;;;;20.02;69.51;98713.42;2153025;83;21463;-63
2021/07/06 04:34:50;;;;;;;32.25;16.93;;;;;;;20.26;69.15;98718.06;2152684;83;21108;-63
2021/07/06 04:37:50;;;;;;;31.50;17.62;;;;;;;20.37;68.59;98717.78;2126249;83;21024;-64
2021/07/06 04:40:51;;;;;;;30.77;18.12;;;;;;;20.45;68.23;98718.31;2108646;84;21059;-63
2021/07/06 04:43:52;;;;;;;31.45;17.73;;;;;;;20.66;68.16;98715.72;2069785;86;21000;-63
2021/07/06 04:46:52;;;;;;;27.27;15.85;;;;;;;20.93;67.89;98711.53;2108436;84;21024;-63
2021/07/06 04:49:53;;;;;;;30.20;17.07;;;;;;;21.08;67.28;98709.56;2108464;84;21467;-63
2021/07/06 04:52:53;;;;;;;31.73;18.20;;;;;;;21.26;66.75;98709.40;2108419;84;21466;-66
2021/07/06 04:55:53;;;;;;;30.10;17.90;;;;;;;21.36;66.38;98709.25;2108462;84;21052;-70
2021/07/06 04:58:54;;;;;;;28.52;16.52;;;;;;;21.74;65.66;98713.63;2108293;84;21012;-70
2021/07/06 05:01:54;;;;;;;29.20;15.57;;;;;;;21.74;65.66;98713.63;2069982;86;21047;-67
2021/07/06 05:04:55;;;;;;;28.17;14.65;;;;;;;21.88;65.77;98714.77;2108548;84;20988;-69
2021/07/06 05:07:55;;;;;;;28.55;15.13;;;;;;;22.11;65.11;98717.08;2108782;84;20959;-67
2021/07/06 05:10:57;;;;;;;28.07;15.27;;;;;;;22.06;64.41;98711.39;2108242;84;21551;-68
2021/07/06 05:13:57;;;;;;;28.20;15.43;;;;;;;22.21;64.63;98712.88;2108643;84;21051;-72
2021/07/06 05:16:59;;;;;;;31.13;16.03;;;;;;;22.42;64.01;98713.66;2070071;86;20996;-69
2021/07/06 05:20:00;;;;;;;27.13;15.53;;;;;;;22.44;63.93;98718.83;2069655;86;21015;-71
2021/07/06 05:23:00;;;;;;;29.70;15.03;;;;;;;22.55;63.77;98723.80;2075418;86;21541;-63
2021/07/06 05:26:01;;;;;;;26.50;14.70;;;;;;;22.64;63.39;98724.11;2075410;86;21529;-63
2021/07/06 05:29:02;;;;;;;29.75;14.78;;;;;;;22.69;63.37;98728.94;2075110;86;21046;-64
2021/07/06 05:32:02;;;;;;;24.90;13.60;;;;;;;23.09;63.75;98729.73;2063171;86;21071;-63
2021/07/06 05:35:03;;;;;;;26.40;14.00;;;;;;;23.37;62.13;98729.23;2063574;86;21028;-65
2021/07/06 05:38:04;;;;;;;25.97;14.27;;;;;;;23.38;61.72;98732.77;2063336;86;21064;-64
2021/07/06 05:41:06;;;;;;;26.85;15.05;;;;;;;23.61;61.52;98730.07;2063384;86;21052;-64
2021/07/06 05:44:07;;;;;;;30.55;14.65;;;;;;;23.93;61.65;98727.63;2056663;86;20992;-64
2021/07/06 05:47:07;;;;;;;26.53;15.07;;;;;;;24.26;60.38;98721.11;2063306;86;21526;-64
2021/07/06 05:50:08;;;;;;;28.13;14.57;;;;;;;24.51;60.48;98724.33;2063447;86;21060;-64
2021/07/06 05:53:09;;;;;;;25.30;13.70;;;;;;;24.78;59.90;98728.73;2063321;86;21495;-64
2021/07/06 05:56:09;;;;;;;24.57;13.17;;;;;;;25.07;58.88;98726.50;2063250;86;21020;-63
2021/07/06 05:59:10;;;;;;;25.53;12.87;;;;;;;25.11;58.21;98730.44;2063381;86;21119;-65
2021/07/06 06:02:10;;;;;;;24.50;11.87;;;;;;;25.27;57.33;98736.59;2063475;86;20977;-65
2021/07/06 06:05:10;;;;;;;26.77;13.63;;;;;;;25.35;56.84;98730.63;2063529;86;21000;-67
2021/07/06 06:08:12;;;;;;;26.67;13.93;;;;;;;25.66;57.55;98724.59;2062905;85;21038;-66
2021/07/06 06:11:13;;;;;;;25.37;12.58;;;;;;;25.91;56.65;98726.36;2067382;84;20994;-67
2021/07/06 06:14:14;;;;;;;24.50;12.67;;;;;;;26.05;55.74;98728.67;2109289;84;21508;-64
2021/07/06 06:17:14;;;;;;;23.97;11.53;;;;;;;26.22;54.90;98734.55;2109531;84;21483;-70
2021/07/06 06:20:15;;;;;;;24.47;12.00;;;;;;;26.29;54.65;98730.05;2109114;84;21556;-69
2021/07/06 06:23:15;;;;;;;26.47;11.63;;;;;;;26.30;53.92;98733.58;2109379;84;21512;-64
2021/07/06 06:26:16;;;;;;;24.53;12.30;;;;;;;26.39;54.00;98738.61;2109500;84;21034;-75
2021/07/06 06:29:16;;;;;;;23.47;11.40;;;;;;;26.63;53.57;98739.13;2109548;84;20994;-73
2021/07/06 06:32:17;;;;;;;22.63;10.73;;;;;;;26.79;53.74;98746.06;2109542;84;20962;-77
2021/07/06 06:35:17;;;;;;;23.77;11.43;;;;;;;27.02;52.78;98749.77;2109247;84;21576;-74
2021/07/06 06:38:18;;;;;;;22.33;11.77;;;;;;;27.21;51.91;98750.87;2113131;82;21007;-72
2021/07/06 06:41:19;;;;;;;23.20;11.17;;;;;;;27.37;52.40;98748.35;2116172;84;21493;-78
2021/07/06 06:44:19;;;;;;;20.97;10.67;;;;;;;27.58;51.78;98745.98;2115923;84;21523;-73
2021/07/06 06:47:20;;;;;;;23.80;10.53;;;;;;;27.82;50.82;98745.07;2115969;84;20998;-74
2021/07/06 06:50:20;;;;;;;21.40;10.43;;;;;;;28.02;51.07;98742.92;2116215;84;21022;-75
2021/07/06 06:53:21;;;;;;;21.00;9.80;;;;;;;28.14;49.75;98748.83;2115711;84;21587;-69
2021/07/06 06:56:22;;;;;;;22.10;9.40;;;;;;;28.18;48.37;98754.61;2116094;84;21023;-71
2021/07/06 06:59:23;;;;;;;21.37;9.17;;;;;;;27.94;48.41;98750.66;2115601;84;21041;-76
2021/07/06 07:02:28;;;;;;;21.40;9.70;;;;;;;27.80;47.90;98755.20;2116250;84;21003;-74
2021/07/06 07:05:25;;;;;;;20.95;9.75;;;;;;;27.79;47.67;98754.92;2111196;83;21011;-74
2021/07/06 07:08:26;;;;;;;20.73;9.20;;;;;;;27.89;47.27;98754.52;2118400;84;21510;-76
2021/07/06 07:11:27;;;;;;;20.00;8.70;;;;;;;27.96;47.39;98755.34;2118543;84;21517;-73
2021/07/06 07:14:31;;;;;;;23.30;8.78;;;;;;;28.07;46.63;98751.20;2117786;84;21038;-82
2021/07/06 07:17:31;;;;;;;20.82;8.00;;;;;;;28.16;46.42;98757.52;2118059;84;21617;-83
2021/07/06 07:20:32;;;;;;;20.02;9.20;;;;;;;28.19;45.96;98754.93;2117597;84;21015;-84
2021/07/06 07:23:33;;;;;;;19.27;8.57;;;;;;;28.54;46.20;98751.12;2118253;84;20984;-81
2021/07/06 07:26:34;;;;;;;19.97;8.90;;;;;;;28.82;45.56;98751.67;2117775;84;21862;-71
2021/07/06 07:29:35;;;;;;;19.20;8.35;;;;;;;29.04;46.51;98759.47;2118199;84;20960;-82
2021/07/06 07:32:37;;;;;;;18.65;7.80;;;;;;;29.21;45.72;98758.45;2113921;84;20997;-72
2021/07/06 07:35:39;;;;;;;20.25;7.78;;;;;;;29.43;45.38;98763.00;2112871;84;21003;-66
2021/07/06 07:38:39;;;;;;;20.60;7.77;;;;;;;29.59;43.43;98763.00;2109299;84;21021;-78
2021/07/06 07:41:40;;;;;;;21.47;9.17;;;;;;;29.46;43.57;98761.75;2106756;84;21010;-69
2021/07/06 07:44:41;;;;;;;21.87;8.37;;;;;;;29.60;44.59;98759.26;2106956;85;21005;-68
2021/07/06 07:47:41;;;;;;;17.45;6.65;;;;;;;29.82;43.30;98757.53;2106425;85;21345;-65
2021/07/06 07:50:42;;;;;;;16.82;6.92;;;;;;;29.84;40.40;98759.00;2106749;85;21485;-64
2021/07/06 07:53:43;;;;;;;16.80;6.60;;;;;;;29.17;41.49;98763.44;2106360;84;21599;-84
2021/07/06 07:56:44;;;;;;;17.77;6.67;;;;;;;28.90;42.73;98766.78;2106685;84;21031;-77
2021/07/06 07:59:44;;;;;;;27.33;8.13;;;;;;;29.21;42.76;98766.02;2108522;84;20998;-83
2021/07/06 08:02:45;;;;;;;17.67;6.92;;;;;;;29.69;43.55;98763.88;2108456;84;21079;-69
2021/07/06 08:28:04;;;;;;;14.13;5.50;;;;;;;29.50;37.65;98765.67;2108734;84;20980;-67
2021/07/06 08:31:04;;;;;;;13.38;5.15;;;;;;;29.56;40.10;98764.79;2108986;84;21519;-66
2021/07/06 08:34:05;;;;;;;13.73;5.23;;;;;;;29.77;39.01;98762.76;2108840;84;21007;-66
2021/07/06 08:37:05;;;;;;;14.30;5.27;;;;;;;30.24;39.09;98759.15;2144733;82;20992;-69
2021/07/06 08:40:06;;;;;;;16.80;5.72;;;;;;;30.75;38.99;98756.65;2155993;82;21060;-70
2021/07/06 08:43:07;;;;;;;13.22;5.37;;;;;;;30.98;39.05;98761.89;2159605;82;21094;-69
2021/07/06 08:46:07;;;;;;;16.67;5.27;;;;;;;30.83;38.51;98756.05;2163931;82;20981;-68
2021/07/06 08:49:08;;;;;;;13.98;4.80;;;;;;;30.79;37.97;98761.61;2163250;82;21048;-70
2021/07/06 08:52:08;;;;;;;14.90;5.40;;;;;;;30.36;37.02;98756.02;2163818;82;21048;-70
2021/07/06 08:55:09;;;;;;;13.03;4.63;;;;;;;30.37;39.48;98756.33;2163741;82;21535;-68
2021/07/06 08:58:09;;;;;;;11.57;4.60;;;;;;;30.28;36.34;98760.90;2163522;82;21092;-69
2021/07/06 09:01:09;;;;;;;11.83;4.53;;;;;;;29.86;37.01;98760.13;2163487;82;20988;-72
2021/07/06 09:04:11;;;;;;;14.33;4.40;;;;;;;29.88;35.75;98758.02;2163892;82;20981;-71
2021/07/06 09:07:12;;;;;;;10.85;4.35;;;;;;;29.86;37.45;98756.08;2163492;82;20980;-70
2021/07/06 09:10:12;;;;;;;15.03;5.33;;;;;;;30.45;37.20;98754.41;2163531;82;21016;-69
2021/07/06 09:13:13;;;;;;;12.50;3.90;;;;;;;31.00;36.95;98752.19;2125225;82;21019;-70
2021/07/06 09:16:13;;;;;;;27.43;5.07;;;;;;;31.36;35.64;98754.02;2118380;84;20995;-71
2021/07/06 09:19:14;;;;;;;14.13;3.92;;;;;;;31.35;33.60;98763.70;2117497;84;21034;-65
2021/07/06 09:22:14;;;;;;;9.00;3.80;;;;;;;31.15;33.00;98759.92;2118117;84;21028;-66
2021/07/06 09:25:15;;;;;;;9.30;4.00;;;;;;;30.84;34.22;98757.16;2118133;84;20980;-72
2021/07/06 09:28:15;;;;;;;10.43;4.50;;;;;;;31.14;35.47;98751.52;2118298;84;21517;-71
2021/07/06 09:31:15;;;;;;;10.83;4.43;;;;;;;31.68;35.73;98754.28;2117826;82;21211;-66
2021/07/06 09:34:16;;;;;;;9.55;3.90;;;;;;;32.10;35.31;98763.17;2118038;84;21031;-66
2021/07/06 09:37:16;;;;;;;8.70;4.00;;;;;;;32.37;34.03;98752.39;2118208;84;20983;-65
2021/07/06 09:40:17;;;;;;;9.80;3.62;;;;;;;32.35;31.80;98749.92;2128302;82;21044;-66
2021/07/06 09:43:17;;;;;;;7.72;3.30;;;;;;;31.85;32.87;98752.56;2129268;83;20977;-69
2021/07/06 09:46:18;;;;;;;8.05;3.20;;;;;;;31.87;31.20;98750.43;2129123;83;21020;-65
2021/07/06 09:49:19;;;;;;;10.35;3.30;;;;;;;31.46;30.99;98755.33;2128936;83;21671;-70
2021/07/06 09:52:19;;;;;;;;;;;;;;;31.60;31.92;98748.68;2131562;84;21484;-67
2021/07/06 09:55:22;;;;;;;7.95;3.35;;;;;;;31.63;31.08;98741.98;2104218;84;20109;-69
2021/07/06 09:58:22;;;;;;;10.58;3.30;;;;;;;31.75;32.28;98748.22;2129382;84;21102;-69
2021/07/06 10:01:23;;;;;;;10.03;2.98;;;;;;;32.14;32.70;98745.94;2128618;83;20985;-66
2021/07/06 10:04:25;;;;;;;9.23;3.47;;;;;;;32.16;29.77;98752.48;2128953;82;21023;-66
2021/07/06 10:07:26;;;;;;;7.15;3.20;;;;;;;32.00;30.98;98747.20;2127642;83;21053;-66
2021/07/06 10:10:26;;;;;;;5.30;2.98;;;;;;;32.46;32.17;98740.94;2129225;83;20966;-67
2021/07/06 10:13:26;;;;;;;;;;;;;;;32.75;29.19;98743.73;2131782;84;21506;-67
2021/07/06 10:16:27;;;;;;;7.47;3.15;;;;;;;32.34;30.22;98746.09;2129254;84;20383;-67
2021/07/06 10:19:27;;;;;;;8.43;3.50;;;;;;;32.60;30.93;98737.98;2129340;84;21370;-66
2021/07/06 10:22:28;;;;;;;8.18;3.08;;;;;;;32.88;30.17;98735.03;2129350;84;20989;-67
2021/07/06 10:25:28;;;;;;;;;;;;;;;33.20;29.24;98728.56;2131822;84;21021;-66
2021/07/06 10:28:29;;;;;;;5.95;3.00;;;;;;;33.56;31.24;98725.67;2129454;84;20101;-66
2021/07/06 10:31:30;;;;;;;14.55;3.42;;;;;;;33.57;28.97;98723.26;2129205;83;21690;-66
2021/07/06 10:34:30;;;;;;;;;;;;;;;33.63;30.73;98719.54;2131519;84;21536;-67
2021/07/06 10:37:31;;;;;;;6.43;3.20;;;;;;;34.07;29.63;98717.53;2129623;84;20152;-66
2021/07/06 10:40:31;;;;;;;;;;;;;;;34.31;30.35;98721.71;2142798;83;21021;-66
2021/07/06 10:43:32;;;;;;;14.60;3.47;;;;;;;34.43;27.81;98720.22;2141575;83;20408;-67
2021/07/06 10:46:34;;;;;;;6.70;2.90;;;;;;;34.29;30.09;98718.95;2140530;83;21014;-66
2021/07/06 10:49:37;;;;;;;7.90;3.22;;;;;;;34.67;28.68;98718.63;2140643;83;21049;-66
2021/07/06 10:52:40;;;;;;;7.58;3.10;;;;;;;34.92;28.62;98718.66;2140871;83;21524;-70
2021/07/06 10:55:42;;;;;;;6.17;3.05;;;;;;;35.04;29.17;98717.44;2140674;83;21052;-71
2021/07/06 10:58:44;;;;;;;8.23;3.10;;;;;;;35.19;29.07;98707.77;2140661;83;21093;-70
2021/07/06 11:01:46;;;;;;;7.45;3.00;;;;;;;34.40;28.32;98708.48;2140399;83;21005;-70
2021/07/06 11:04:50;;;;;;;10.75;3.20;;;;;;;33.74;29.32;98705.05;2140886;83;21033;-71
2021/07/06 11:07:53;;;;;;;9.93;3.30;;;;;;;34.01;29.02;98710.64;2140814;83;20997;-70
2021/07/06 11:10:55;;;;;;;7.80;3.00;;;;;;;34.24;28.82;98708.80;2140527;83;21025;-71
2021/07/06 11:13:57;;;;;;;6.90;2.90;;;;;;;34.52;27.66;98706.47;2140754;83;20997;-72
2021/07/06 11:17:00;;;;;;;8.25;2.90;;;;;;;34.50;28.12;98705.89;2133275;83;21495;-72
2021/07/06 11:20:02;;;;;;;8.08;3.25;;;;;;;34.30;26.70;98697.47;2108823;83;21551;-70
2021/07/06 11:23:04;;;;;;;7.72;2.95;;;;;;;34.13;26.89;98709.72;2090218;84;21599;-67
2021/07/06 11:26:06;;;;;;;6.22;2.80;;;;;;;33.72;26.59;98708.56;2124720;83;21096;-67
2021/07/06 11:29:09;;;;;;;5.22;2.62;;;;;;;33.71;26.03;98704.73;2126043;83;21051;-69
2021/07/06 11:32:11;;;;;;;5.72;2.70;;;;;;;33.83;27.96;98705.47;2126328;83;21052;-67
2021/07/06 11:35:13;;;;;;;6.03;2.52;;;;;;;34.32;28.48;98706.20;2126080;83;21068;-67
2021/07/06 11:38:16;;;;;;;6.78;2.80;;;;;;;34.85;27.99;98703.87;2113956;84;21060;-67
2021/07/06 11:41:18;;;;;;;7.37;2.90;;;;;;;35.30;27.85;98696.44;2089702;84;21064;-66
2021/07/06 11:44:20;;;;;;;8.38;3.02;;;;;;;35.56;27.27;98701.03;2089487;84;21040;-66
2021/07/06 11:47:23;;;;;;;8.95;3.50;;;;;;;35.72;27.76;98694.34;2090372;81;21040;-68
2021/07/06 11:50:25;;;;;;;9.50;3.10;;;;;;;35.79;27.07;98688.63;2125894;83;21028;-67
2021/07/06 11:53:26;;;;;;;5.75;2.87;;;;;;;35.65;28.05;98685.00;2152927;83;21031;-66
2021/07/06 11:56:49;;;;;;;10.88;3.40;;;;;;;34.73;27.46;98681.39;2142189;83;21058;-72
2021/07/06 11:59:52;;;;;;;8.75;3.10;;;;;;;34.69;28.23;98679.70;2119463;83;21092;-66
2021/07/06 12:02:52;;;;;;;8.30;3.00;;;;;;;35.14;28.38;98671.76;2137649;83;20993;-69
2021/07/06 12:05:53;;;;;;;7.30;3.10;;;;;;;35.42;26.88;98667.66;2147894;83;20992;-66
2021/07/06 12:09:10;;;;;;;6.75;2.92;;;;;;;35.56;27.88;98664.77;2148012;83;21027;-72
2021/07/06 12:12:13;;;;;;;8.08;2.90;;;;;;;35.64;27.77;98660.72;2087706;84;21103;-73
2021/07/06 12:15:15;;;;;;;8.93;3.60;;;;;;;35.72;27.52;98660.24;2116023;84;20997;-67
2021/07/06 12:18:16;;;;;;;11.88;3.58;;;;;;;35.52;26.85;98654.91;2116589;84;21586;-70
2021/07/06 12:21:19;;;;;;;9.50;3.30;;;;;;;34.62;27.47;98658.10;2116232;84;21579;-68
2021/07/06 12:24:23;;;;;;;8.55;3.30;;;;;;;34.01;28.68;98646.72;2116338;84;21536;-72
2021/07/06 12:31:17;;;;;;;9.05;3.30;;;;;;;34.92;27.00;98634.21;2139697;83;21731;-73
2021/07/06 12:34:20;;;;;;;10.80;3.08;;;;;;;35.38;28.54;98629.98;2124238;83;21064;-70
2021/07/06 12:37:21;;;;;;;8.70;3.20;;;;;;;35.86;28.38;98627.35;2151201;83;21007;-68
2021/07/06 12:40:22;;;;;;;10.65;3.35;;;;;;;36.10;27.63;98632.37;2151839;83;21547;-70
2021/07/06 12:43:23;;;;;;;6.08;3.00;;;;;;;36.30;27.30;98640.41;2152983;83;20988;-72
2021/07/06 12:46:24;;;;;;;6.80;3.10;;;;;;;36.44;26.36;98633.92;2152883;83;21047;-71
2021/07/06 12:49:26;;;;;;;7.92;3.10;;;;;;;36.58;27.03;98630.40;2153011;83;20989;-70
2021/07/06 12:52:26;;;;;;;8.50;3.65;;;;;;;36.66;27.01;98636.42;2152908;83;21032;-71
2021/07/06 12:55:27;;;;;;;9.28;3.00;;;;;;;36.98;26.54;98634.05;2153105;83;20997;-70
2021/07/06 12:58:29;;;;;;;6.35;2.70;;;;;;;36.97;26.18;98627.77;2152945;83;21081;-72
2021/07/06 13:01:29;;;;;;;14.13;3.47;;;;;;;36.89;25.29;98629.11;2152989;83;21064;-77
2021/07/06 13:04:31;;;;;;;7.65;3.20;;;;;;;36.73;26.14;98624.69;2152811;83;21639;-75
2021/07/06 13:07:31;;;;;;;7.33;3.10;;;;;;;36.89;26.44;98637.86;2152981;83;21044;-71
2021/07/06 13:10:33;;;;;;;5.75;2.80;;;;;;;37.01;26.00;98633.49;2153098;83;21037;-71
2021/07/06 13:13:34;;;;;;;8.33;3.00;;;;;;;37.05;26.11;98636.80;2152909;83;21020;-72
2021/07/06 13:16:35;;;;;;;8.20;3.10;;;;;;;37.05;24.71;98635.96;2153046;83;21009;-71
2021/07/06 13:19:35;;;;;;;8.83;3.33;;;;;;;36.32;23.84;98633.60;2152864;83;21602;-71
2021/07/06 13:22:36;;;;;;;7.67;2.90;;;;;;;36.04;25.39;98631.52;2152969;83;21523;-67
2021/07/06 13:25:37;;;;;;;7.65;2.90;;;;;;;36.04;26.21;98630.16;2152701;83;21052;-68
2021/07/06 13:28:38;;;;;;;5.37;2.70;;;;;;;36.37;26.01;98626.78;2152969;83;20997;-66
2021/07/06 13:31:40;;;;;;;6.08;3.05;;;;;;;36.31;25.55;98627.86;2153071;83;21492;-68
2021/07/06 13:34:40;;;;;;;5.40;2.80;;;;;;;36.27;25.76;98625.91;2153049;83;21009;-66
2021/07/06 13:37:41;;;;;;;7.65;3.00;;;;;;;36.29;25.43;98620.46;2152964;83;21028;-68
2021/07/06 13:40:42;;;;;;;7.50;3.00;;;;;;;35.84;26.09;98614.50;2119222;83;21075;-68
2021/07/06 13:43:43;;;;;;;8.15;3.22;;;;;;;35.84;26.09;98614.50;2108504;84;21000;-66
2021/07/06 13:46:43;;;;;;;7.97;3.00;;;;;;;36.25;25.41;98614.70;2108434;84;20981;-66
2021/07/06 13:49:44;;;;;;;4.85;2.90;;;;;;;36.47;25.16;98609.61;2108385;84;20969;-71
2021/07/06 13:52:46;;;;;;;6.45;2.92;;;;;;;36.46;25.12;98610.69;2108251;84;20960;-71
2021/07/06 13:55:46;;;;;;;16.12;3.20;;;;;;;36.71;25.56;98610.50;2108404;84;21007;-72
2021/07/06 13:58:47;;;;;;;5.28;2.58;;;;;;;37.00;24.05;98593.62;2108261;84;21514;-73
2021/07/06 14:01:48;;;;;;;6.00;2.80;;;;;;;36.95;24.81;98599.88;2108240;84;21063;-71
2021/07/06 14:07:50;;;;;;;8.58;3.15;;;;;;;37.34;25.87;98588.44;2087316;84;20999;-71
2021/07/06 14:10:52;;;;;;;8.10;3.22;;;;;;;37.50;24.91;98591.13;2108388;84;21569;-68
2021/07/06 14:13:53;;;;;;;6.90;2.90;;;;;;;37.57;24.82;98587.55;2108489;84;21022;-70
2021/07/06 14:16:53;;;;;;;6.83;3.00;;;;;;;37.64;23.78;98586.72;2108492;84;21478;-67
2021/07/06 14:19:54;;;;;;;4.45;2.58;;;;;;;37.48;23.79;98587.30;2108501;84;21051;-68
2021/07/06 14:22:55;;;;;;;6.08;2.67;;;;;;;37.43;24.73;98585.96;2108541;84;20991;-67
2021/07/06 14:25:59;;;;;;;6.50;2.80;;;;;;;37.44;24.56;98576.64;2108214;84;21563;-70
2021/07/06 14:28:59;;;;;;;9.23;2.87;;;;;;;37.43;23.50;98580.49;2087019;84;21035;-70